sensor_id;sensor_type;location;lat;lon;timestamp;P1;durP1;ratioP1;P2;durP2;ratioP2
49237;SDS011;35069;47.906;1.892;2022-11-12T00:00:00;9.68;;;8.68;;
49237;SDS011;35069;47.906;1.892;2022-11-12T00:02:25;13.45;;;8.35;;
49237;SDS011;35069;47.906;1.892;2022-11-12T00:04:51;9.20;;;7.35;;
49237;SDS011;35069;47.906;1.892;2022-11-12T00:07:17;11.60;;;8.80;;
49237;SDS011;35069;47.906;1.892;2022-11-12T00:09:42;13.00;;;8.50;;
49237;SDS011;35069;47.906;1.892;2022-11-12T00:12:08;20.20;;;9.20;;
49237;SDS011;35069;47.906;1.892;2022-11-12T00:14:34;9.23;;;8.15;;
49237;SDS011;35069;47.906;1.892;2022-11-12T00:16:59;9.50;;;8.23;;
49237;SDS011;35069;47.906;1.892;2022-11-12T00:19:25;10.82;;;7.70;;
49237;SDS011;35069;47.906;1.892;2022-11-12T00:21:50;13.02;;;8.50;;
49237;SDS011;35069;47.906;1.892;2022-11-12T00:24:19;9.60;;;8.30;;
49237;SDS011;35069;47.906;1.892;2022-11-12T00:26:44;9.75;;;7.82;;
49237;SDS011;35069;47.906;1.892;2022-11-12T00:29:10;9.13;;;8.18;;
49237;SDS011;35069;47.906;1.892;2022-11-12T00:31:36;15.55;;;8.70;;
49237;SDS011;35069;47.906;1.892;2022-11-12T00:34:02;9.65;;;7.70;;
49237;SDS011;35069;47.906;1.892;2022-11-12T00:36:27;8.43;;;7.53;;
49237;SDS011;35069;47.906;1.892;2022-11-12T00:38:53;12.15;;;9.13;;
49237;SDS011;35069;47.906;1.892;2022-11-12T00:41:18;10.45;;;7.93;;
49237;SDS011;35069;47.906;1.892;2022-11-12T00:43:44;14.38;;;8.65;;
49237;SDS011;35069;47.906;1.892;2022-11-12T00:46:10;12.50;;;7.45;;
49237;SDS011;35069;47.906;1.892;2022-11-12T00:48:35;10.50;;;7.80;;
49237;SDS011;35069;47.906;1.892;2022-11-12T00:51:02;10.07;;;8.52;;
49237;SDS011;35069;47.906;1.892;2022-11-12T00:53:28;10.18;;;8.20;;
49237;SDS011;35069;47.906;1.892;2022-11-12T00:56:02;11.15;;;8.38;;
49237;SDS011;35069;47.906;1.892;2022-11-12T00:58:29;12.15;;;8.02;;
49237;SDS011;35069;47.906;1.892;2022-11-12T01:01:06;12.20;;;8.05;;
49237;SDS011;35069;47.906;1.892;2022-11-12T01:03:33;9.35;;;7.97;;
49237;SDS011;35069;47.906;1.892;2022-11-12T01:06:05;9.27;;;8.25;;
49237;SDS011;35069;47.906;1.892;2022-11-12T01:08:33;11.38;;;7.30;;
49237;SDS011;35069;47.906;1.892;2022-11-12T01:11:06;8.15;;;7.35;;
49237;SDS011;35069;47.906;1.892;2022-11-12T01:13:33;9.60;;;7.53;;
49237;SDS011;35069;47.906;1.892;2022-11-12T01:16:04;12.60;;;8.05;;
49237;SDS011;35069;47.906;1.892;2022-11-12T01:18:34;8.77;;;7.35;;
49237;SDS011;35069;47.906;1.892;2022-11-12T01:21:00;11.23;;;7.82;;
49237;SDS011;35069;47.906;1.892;2022-11-12T01:23:27;9.18;;;7.50;;
49237;SDS011;35069;47.906;1.892;2022-11-12T01:25:53;9.25;;;8.25;;
49237;SDS011;35069;47.906;1.892;2022-11-12T01:28:19;11.50;;;7.35;;
49237;SDS011;35069;47.906;1.892;2022-11-12T01:30:44;8.60;;;7.75;;
49237;SDS011;35069;47.906;1.892;2022-11-12T01:33:10;13.05;;;7.68;;
49237;SDS011;35069;47.906;1.892;2022-11-12T01:35:35;8.82;;;7.55;;
49237;SDS011;35069;47.906;1.892;2022-11-12T01:38:01;10.30;;;7.60;;
49237;SDS011;35069;47.906;1.892;2022-11-12T01:40:26;9.35;;;8.35;;
49237;SDS011;35069;47.906;1.892;2022-11-12T01:42:52;9.52;;;8.00;;
49237;SDS011;35069;47.906;1.892;2022-11-12T01:45:18;12.98;;;8.52;;
49237;SDS011;35069;47.906;1.892;2022-11-12T01:47:44;9.43;;;8.13;;
49237;SDS011;35069;47.906;1.892;2022-11-12T01:50:14;9.88;;;8.02;;
49237;SDS011;35069;47.906;1.892;2022-11-12T01:52:48;11.65;;;8.45;;
49237;SDS011;35069;47.906;1.892;2022-11-12T01:55:20;9.80;;;8.80;;
49237;SDS011;35069;47.906;1.892;2022-11-12T01:57:49;10.07;;;8.48;;
49237;SDS011;35069;47.906;1.892;2022-11-12T02:00:19;12.18;;;8.40;;
49237;SDS011;35069;47.906;1.892;2022-11-12T02:02:45;8.70;;;7.45;;
49237;SDS011;35069;47.906;1.892;2022-11-12T02:05:16;10.20;;;8.00;;
49237;SDS011;35069;47.906;1.892;2022-11-12T02:07:45;9.95;;;7.82;;
49237;SDS011;35069;47.906;1.892;2022-11-12T02:10:12;10.65;;;8.63;;
49237;SDS011;35069;47.906;1.892;2022-11-12T02:12:38;11.95;;;7.85;;
49237;SDS011;35069;47.906;1.892;2022-11-12T02:15:24;9.00;;;8.20;;
49237;SDS011;35069;47.906;1.892;2022-11-12T02:17:50;10.43;;;8.32;;
49237;SDS011;35069;47.906;1.892;2022-11-12T02:20:16;18.50;;;9.70;;
49237;SDS011;35069;47.906;1.892;2022-11-12T02:22:42;13.82;;;9.00;;
49237;SDS011;35069;47.906;1.892;2022-11-12T02:25:10;11.88;;;9.00;;
49237;SDS011;35069;47.906;1.892;2022-11-12T02:27:38;12.05;;;8.98;;
49237;SDS011;35069;47.906;1.892;2022-11-12T02:30:04;9.35;;;8.30;;
49237;SDS011;35069;47.906;1.892;2022-11-12T02:32:30;11.93;;;9.07;;
49237;SDS011;35069;47.906;1.892;2022-11-12T02:34:55;11.75;;;8.75;;
49237;SDS011;35069;47.906;1.892;2022-11-12T02:37:21;14.25;;;7.95;;
49237;SDS011;35069;47.906;1.892;2022-11-12T02:39:47;9.35;;;8.35;;
49237;SDS011;35069;47.906;1.892;2022-11-12T02:42:13;13.35;;;8.88;;
49237;SDS011;35069;47.906;1.892;2022-11-12T02:44:39;12.30;;;8.95;;
49237;SDS011;35069;47.906;1.892;2022-11-12T02:47:05;11.70;;;9.40;;
49237;SDS011;35069;47.906;1.892;2022-11-12T02:49:31;9.77;;;8.77;;
49237;SDS011;35069;47.906;1.892;2022-11-12T02:51:56;10.35;;;8.73;;
49237;SDS011;35069;47.906;1.892;2022-11-12T02:54:22;10.70;;;8.88;;
49237;SDS011;35069;47.906;1.892;2022-11-12T02:56:47;10.25;;;8.80;;
49237;SDS011;35069;47.906;1.892;2022-11-12T02:59:13;14.07;;;9.82;;
49237;SDS011;35069;47.906;1.892;2022-11-12T03:01:38;14.07;;;9.73;;
49237;SDS011;35069;47.906;1.892;2022-11-12T03:04:04;11.98;;;10.20;;
49237;SDS011;35069;47.906;1.892;2022-11-12T03:06:29;11.95;;;9.00;;
49237;SDS011;35069;47.906;1.892;2022-11-12T03:08:55;12.02;;;9.20;;
49237;SDS011;35069;47.906;1.892;2022-11-12T03:11:21;14.98;;;9.20;;
49237;SDS011;35069;47.906;1.892;2022-11-12T03:13:49;11.98;;;8.93;;
49237;SDS011;35069;47.906;1.892;2022-11-12T03:16:15;11.50;;;9.90;;
49237;SDS011;35069;47.906;1.892;2022-11-12T03:18:40;11.77;;;9.35;;
49237;SDS011;35069;47.906;1.892;2022-11-12T03:21:06;12.13;;;9.43;;
49237;SDS011;35069;47.906;1.892;2022-11-12T03:23:31;10.30;;;9.05;;
49237;SDS011;35069;47.906;1.892;2022-11-12T03:25:57;8.95;;;8.02;;
49237;SDS011;35069;47.906;1.892;2022-11-12T03:28:25;10.15;;;8.70;;
49237;SDS011;35069;47.906;1.892;2022-11-12T03:30:55;12.00;;;8.93;;
49237;SDS011;35069;47.906;1.892;2022-11-12T03:33:22;13.57;;;8.93;;
49237;SDS011;35069;47.906;1.892;2022-11-12T03:35:48;11.07;;;8.88;;
49237;SDS011;35069;47.906;1.892;2022-11-12T03:38:13;12.70;;;9.50;;
49237;SDS011;35069;47.906;1.892;2022-11-12T03:40:39;11.52;;;9.93;;
49237;SDS011;35069;47.906;1.892;2022-11-12T03:43:05;17.13;;;10.18;;
49237;SDS011;35069;47.906;1.892;2022-11-12T03:45:30;11.98;;;8.30;;
49237;SDS011;35069;47.906;1.892;2022-11-12T03:47:57;14.02;;;9.13;;
49237;SDS011;35069;47.906;1.892;2022-11-12T03:50:24;12.80;;;10.07;;
49237;SDS011;35069;47.906;1.892;2022-11-12T03:52:51;10.82;;;9.63;;
49237;SDS011;35069;47.906;1.892;2022-11-12T03:55:20;14.38;;;9.93;;
49237;SDS011;35069;47.906;1.892;2022-11-12T03:57:47;12.98;;;9.75;;
49237;SDS011;35069;47.906;1.892;2022-11-12T04:00:14;10.18;;;9.18;;
49237;SDS011;35069;47.906;1.892;2022-11-12T04:02:40;13.10;;;9.43;;
49237;SDS011;35069;47.906;1.892;2022-11-12T04:05:06;11.98;;;10.07;;
49237;SDS011;35069;47.906;1.892;2022-11-12T04:07:58;13.15;;;10.23;;
49237;SDS011;35069;47.906;1.892;2022-11-12T04:10:46;12.90;;;10.07;;
49237;SDS011;35069;47.906;1.892;2022-11-12T04:13:12;11.68;;;9.45;;
49237;SDS011;35069;47.906;1.892;2022-11-12T04:16:11;13.15;;;10.48;;
49237;SDS011;35069;47.906;1.892;2022-11-12T04:19:00;11.52;;;9.70;;
49237;SDS011;35069;47.906;1.892;2022-11-12T04:21:50;12.25;;;9.65;;
49237;SDS011;35069;47.906;1.892;2022-11-12T04:27:19;11.80;;;10.60;;
49237;SDS011;35069;47.906;1.892;2022-11-12T04:29:45;10.57;;;9.45;;
49237;SDS011;35069;47.906;1.892;2022-11-12T04:32:31;14.20;;;9.70;;
49237;SDS011;35069;47.906;1.892;2022-11-12T04:34:57;11.18;;;9.25;;
49237;SDS011;35069;47.906;1.892;2022-11-12T04:37:24;18.45;;;9.50;;
49237;SDS011;35069;47.906;1.892;2022-11-12T04:39:52;12.00;;;9.68;;
49237;SDS011;35069;47.906;1.892;2022-11-12T04:42:18;13.73;;;9.60;;
49237;SDS011;35069;47.906;1.892;2022-11-12T04:45:07;13.45;;;9.73;;
49237;SDS011;35069;47.906;1.892;2022-11-12T04:47:35;13.80;;;9.90;;
49237;SDS011;35069;47.906;1.892;2022-11-12T04:50:03;12.15;;;10.02;;
49237;SDS011;35069;47.906;1.892;2022-11-12T04:52:31;12.82;;;10.45;;
49237;SDS011;35069;47.906;1.892;2022-11-12T04:54:57;15.55;;;10.23;;
49237;SDS011;35069;47.906;1.892;2022-11-12T04:57:23;15.10;;;11.18;;
49237;SDS011;35069;47.906;1.892;2022-11-12T04:59:50;11.43;;;10.02;;
49237;SDS011;35069;47.906;1.892;2022-11-12T05:02:16;12.52;;;10.52;;
49237;SDS011;35069;47.906;1.892;2022-11-12T05:04:42;15.38;;;10.93;;
49237;SDS011;35069;47.906;1.892;2022-11-12T05:07:08;16.48;;;11.45;;
49237;SDS011;35069;47.906;1.892;2022-11-12T05:09:34;17.50;;;10.90;;
49237;SDS011;35069;47.906;1.892;2022-11-12T05:12:00;13.93;;;10.57;;
49237;SDS011;35069;47.906;1.892;2022-11-12T05:14:26;19.70;;;11.18;;
49237;SDS011;35069;47.906;1.892;2022-11-12T05:16:52;14.40;;;10.57;;
49237;SDS011;35069;47.906;1.892;2022-11-12T05:19:18;14.43;;;10.95;;
49237;SDS011;35069;47.906;1.892;2022-11-12T05:21:43;12.15;;;9.52;;
49237;SDS011;35069;47.906;1.892;2022-11-12T05:24:28;12.23;;;10.50;;
49237;SDS011;35069;47.906;1.892;2022-11-12T05:26:54;15.55;;;10.70;;
49237;SDS011;35069;47.906;1.892;2022-11-12T05:29:19;12.93;;;9.68;;
49237;SDS011;35069;47.906;1.892;2022-11-12T05:31:45;17.10;;;11.55;;
49237;SDS011;35069;47.906;1.892;2022-11-12T05:34:11;14.88;;;11.48;;
49237;SDS011;35069;47.906;1.892;2022-11-12T05:36:37;14.05;;;11.35;;
49237;SDS011;35069;47.906;1.892;2022-11-12T05:39:03;14.45;;;10.32;;
49237;SDS011;35069;47.906;1.892;2022-11-12T05:41:29;18.20;;;12.25;;
49237;SDS011;35069;47.906;1.892;2022-11-12T05:43:55;13.38;;;10.18;;
49237;SDS011;35069;47.906;1.892;2022-11-12T05:46:21;13.20;;;11.13;;
49237;SDS011;35069;47.906;1.892;2022-11-12T05:48:46;13.55;;;10.68;;
49237;SDS011;35069;47.906;1.892;2022-11-12T05:51:12;16.15;;;11.15;;
49237;SDS011;35069;47.906;1.892;2022-11-12T05:53:39;14.27;;;11.30;;
49237;SDS011;35069;47.906;1.892;2022-11-12T05:56:06;15.18;;;11.23;;
49237;SDS011;35069;47.906;1.892;2022-11-12T05:58:32;15.00;;;11.18;;
49237;SDS011;35069;47.906;1.892;2022-11-12T06:00:58;14.80;;;10.50;;
49237;SDS011;35069;47.906;1.892;2022-11-12T06:03:24;16.48;;;11.00;;
49237;SDS011;35069;47.906;1.892;2022-11-12T06:05:50;11.68;;;9.95;;
49237;SDS011;35069;47.906;1.892;2022-11-12T06:08:16;13.23;;;10.35;;
49237;SDS011;35069;47.906;1.892;2022-11-12T06:10:42;12.70;;;9.95;;
49237;SDS011;35069;47.906;1.892;2022-11-12T06:13:12;15.38;;;11.10;;
49237;SDS011;35069;47.906;1.892;2022-11-12T06:15:38;14.93;;;10.45;;
49237;SDS011;35069;47.906;1.892;2022-11-12T06:18:03;15.55;;;10.20;;
49237;SDS011;35069;47.906;1.892;2022-11-12T06:20:29;13.40;;;10.43;;
49237;SDS011;35069;47.906;1.892;2022-11-12T06:22:55;13.55;;;10.32;;
49237;SDS011;35069;47.906;1.892;2022-11-12T06:25:21;11.07;;;9.40;;
49237;SDS011;35069;47.906;1.892;2022-11-12T06:27:47;10.88;;;9.70;;
49237;SDS011;35069;47.906;1.892;2022-11-12T06:30:13;15.77;;;10.13;;
49237;SDS011;35069;47.906;1.892;2022-11-12T06:32:38;13.13;;;10.05;;
49237;SDS011;35069;47.906;1.892;2022-11-12T06:35:04;13.00;;;9.75;;
49237;SDS011;35069;47.906;1.892;2022-11-12T06:37:30;16.77;;;9.90;;
49237;SDS011;35069;47.906;1.892;2022-11-12T06:39:55;16.70;;;9.18;;
49237;SDS011;35069;47.906;1.892;2022-11-12T06:42:24;12.40;;;9.43;;
49237;SDS011;35069;47.906;1.892;2022-11-12T06:44:50;16.40;;;10.00;;
49237;SDS011;35069;47.906;1.892;2022-11-12T06:47:15;13.95;;;9.35;;
49237;SDS011;35069;47.906;1.892;2022-11-12T06:49:41;13.07;;;10.15;;
49237;SDS011;35069;47.906;1.892;2022-11-12T06:52:06;14.13;;;10.80;;
49237;SDS011;35069;47.906;1.892;2022-11-12T06:54:32;16.00;;;10.00;;
49237;SDS011;35069;47.906;1.892;2022-11-12T06:56:57;14.55;;;9.95;;
49237;SDS011;35069;47.906;1.892;2022-11-12T06:59:23;14.73;;;10.77;;
49237;SDS011;35069;47.906;1.892;2022-11-12T07:01:48;11.85;;;10.38;;
49237;SDS011;35069;47.906;1.892;2022-11-12T07:04:14;12.40;;;10.27;;
49237;SDS011;35069;47.906;1.892;2022-11-12T07:06:40;19.05;;;10.43;;
49237;SDS011;35069;47.906;1.892;2022-11-12T07:09:05;15.45;;;10.75;;
49237;SDS011;35069;47.906;1.892;2022-11-12T07:11:31;13.23;;;9.40;;
49237;SDS011;35069;47.906;1.892;2022-11-12T07:13:57;12.93;;;10.15;;
49237;SDS011;35069;47.906;1.892;2022-11-12T07:16:23;15.27;;;9.77;;
49237;SDS011;35069;47.906;1.892;2022-11-12T07:18:48;11.57;;;10.10;;
49237;SDS011;35069;47.906;1.892;2022-11-12T07:21:15;12.00;;;8.98;;
49237;SDS011;35069;47.906;1.892;2022-11-12T07:23:43;12.82;;;10.93;;
49237;SDS011;35069;47.906;1.892;2022-11-12T07:26:13;12.95;;;9.90;;
49237;SDS011;35069;47.906;1.892;2022-11-12T07:28:38;14.43;;;10.52;;
49237;SDS011;35069;47.906;1.892;2022-11-12T07:31:05;20.58;;;11.88;;
49237;SDS011;35069;47.906;1.892;2022-11-12T07:33:33;13.35;;;10.13;;
49237;SDS011;35069;47.906;1.892;2022-11-12T07:36:00;12.52;;;9.82;;
49237;SDS011;35069;47.906;1.892;2022-11-12T07:38:28;14.32;;;11.07;;
49237;SDS011;35069;47.906;1.892;2022-11-12T07:40:58;11.40;;;9.73;;
49237;SDS011;35069;47.906;1.892;2022-11-12T07:43:32;14.18;;;10.23;;
49237;SDS011;35069;47.906;1.892;2022-11-12T07:46:00;14.07;;;9.85;;
49237;SDS011;35069;47.906;1.892;2022-11-12T07:48:30;13.27;;;9.68;;
49237;SDS011;35069;47.906;1.892;2022-11-12T07:50:59;14.15;;;10.50;;
49237;SDS011;35069;47.906;1.892;2022-11-12T07:53:30;14.73;;;10.35;;
49237;SDS011;35069;47.906;1.892;2022-11-12T07:55:57;12.88;;;10.85;;
49237;SDS011;35069;47.906;1.892;2022-11-12T07:58:24;14.75;;;10.75;;
49237;SDS011;35069;47.906;1.892;2022-11-12T08:00:52;14.70;;;10.57;;
49237;SDS011;35069;47.906;1.892;2022-11-12T08:03:18;14.23;;;10.13;;
49237;SDS011;35069;47.906;1.892;2022-11-12T08:05:44;16.38;;;11.27;;
49237;SDS011;35069;47.906;1.892;2022-11-12T08:08:10;15.60;;;10.68;;
49237;SDS011;35069;47.906;1.892;2022-11-12T08:10:36;11.80;;;10.35;;
49237;SDS011;35069;47.906;1.892;2022-11-12T08:13:02;16.65;;;11.63;;
49237;SDS011;35069;47.906;1.892;2022-11-12T08:15:28;15.10;;;10.65;;
49237;SDS011;35069;47.906;1.892;2022-11-12T08:17:54;14.45;;;10.43;;
49237;SDS011;35069;47.906;1.892;2022-11-12T08:20:19;14.57;;;11.25;;
49237;SDS011;35069;47.906;1.892;2022-11-12T08:22:45;14.82;;;10.85;;
49237;SDS011;35069;47.906;1.892;2022-11-12T08:25:11;13.57;;;10.95;;
49237;SDS011;35069;47.906;1.892;2022-11-12T08:27:36;13.60;;;10.23;;
49237;SDS011;35069;47.906;1.892;2022-11-12T08:30:03;15.38;;;11.23;;
49237;SDS011;35069;47.906;1.892;2022-11-12T08:32:29;14.85;;;11.13;;
49237;SDS011;35069;47.906;1.892;2022-11-12T08:34:55;14.70;;;10.77;;
49237;SDS011;35069;47.906;1.892;2022-11-12T08:37:20;13.65;;;10.90;;
49237;SDS011;35069;47.906;1.892;2022-11-12T08:39:46;18.17;;;11.10;;
49237;SDS011;35069;47.906;1.892;2022-11-12T08:42:12;13.52;;;10.77;;
49237;SDS011;35069;47.906;1.892;2022-11-12T08:44:37;17.60;;;12.30;;
49237;SDS011;35069;47.906;1.892;2022-11-12T08:47:03;13.57;;;10.48;;
49237;SDS011;35069;47.906;1.892;2022-11-12T08:49:29;16.58;;;11.52;;
49237;SDS011;35069;47.906;1.892;2022-11-12T08:51:54;14.80;;;10.52;;
49237;SDS011;35069;47.906;1.892;2022-11-12T08:54:20;14.07;;;10.32;;
49237;SDS011;35069;47.906;1.892;2022-11-12T08:56:46;18.13;;;11.93;;
49237;SDS011;35069;47.906;1.892;2022-11-12T08:59:11;13.00;;;10.77;;
49237;SDS011;35069;47.906;1.892;2022-11-12T09:01:37;16.45;;;10.88;;
49237;SDS011;35069;47.906;1.892;2022-11-12T09:04:02;15.90;;;11.13;;
49237;SDS011;35069;47.906;1.892;2022-11-12T09:06:28;14.15;;;11.32;;
49237;SDS011;35069;47.906;1.892;2022-11-12T09:08:54;12.55;;;10.75;;
49237;SDS011;35069;47.906;1.892;2022-11-12T09:11:19;16.10;;;11.85;;
49237;SDS011;35069;47.906;1.892;2022-11-12T09:13:45;15.40;;;11.38;;
49237;SDS011;35069;47.906;1.892;2022-11-12T09:16:11;12.50;;;11.18;;
49237;SDS011;35069;47.906;1.892;2022-11-12T09:18:36;14.02;;;10.20;;
49237;SDS011;35069;47.906;1.892;2022-11-12T09:21:03;15.57;;;10.88;;
49237;SDS011;35069;47.906;1.892;2022-11-12T09:23:32;15.13;;;10.80;;
49237;SDS011;35069;47.906;1.892;2022-11-12T09:25:59;17.88;;;10.85;;
49237;SDS011;35069;47.906;1.892;2022-11-12T09:28:24;12.30;;;10.45;;
49237;SDS011;35069;47.906;1.892;2022-11-12T09:30:50;13.48;;;9.50;;
49237;SDS011;35069;47.906;1.892;2022-11-12T09:33:24;13.20;;;10.63;;
49237;SDS011;35069;47.906;1.892;2022-11-12T09:35:55;15.82;;;11.57;;
49237;SDS011;35069;47.906;1.892;2022-11-12T09:38:24;15.90;;;10.63;;
49237;SDS011;35069;47.906;1.892;2022-11-12T09:43:17;13.13;;;9.75;;
49237;SDS011;35069;47.906;1.892;2022-11-12T09:45:47;12.60;;;10.40;;
49237;SDS011;35069;47.906;1.892;2022-11-12T09:48:16;12.02;;;9.90;;
49237;SDS011;35069;47.906;1.892;2022-11-12T09:50:50;18.13;;;9.88;;
49237;SDS011;35069;47.906;1.892;2022-11-12T09:53:29;14.40;;;10.60;;
49237;SDS011;35069;47.906;1.892;2022-11-12T09:56:05;14.10;;;10.20;;
49237;SDS011;35069;47.906;1.892;2022-11-12T09:58:34;16.73;;;9.75;;
49237;SDS011;35069;47.906;1.892;2022-11-12T10:03:55;11.30;;;9.25;;
49237;SDS011;35069;47.906;1.892;2022-11-12T10:06:33;11.45;;;9.32;;
49237;SDS011;35069;47.906;1.892;2022-11-12T10:09:08;11.98;;;9.65;;
49237;SDS011;35069;47.906;1.892;2022-11-12T10:23:45;11.82;;;7.47;;
49237;SDS011;35069;47.906;1.892;2022-11-12T10:26:14;11.00;;;7.65;;
49237;SDS011;35069;47.906;1.892;2022-11-12T10:31:14;11.15;;;8.93;;
49237;SDS011;35069;47.906;1.892;2022-11-12T10:33:41;11.60;;;8.63;;
49237;SDS011;35069;47.906;1.892;2022-11-12T10:38:57;8.27;;;6.82;;
49237;SDS011;35069;47.906;1.892;2022-11-12T10:41:24;11.20;;;7.90;;
49237;SDS011;35069;47.906;1.892;2022-11-12T10:43:55;8.50;;;7.50;;
49237;SDS011;35069;47.906;1.892;2022-11-12T10:46:26;9.80;;;7.15;;
49237;SDS011;35069;47.906;1.892;2022-11-12T10:48:57;9.35;;;7.43;;
49237;SDS011;35069;47.906;1.892;2022-11-12T10:51:52;7.45;;;6.28;;
49237;SDS011;35069;47.906;1.892;2022-11-12T10:56:54;9.90;;;8.30;;
49237;SDS011;35069;47.906;1.892;2022-11-12T10:59:20;15.20;;;8.05;;
49237;SDS011;35069;47.906;1.892;2022-11-12T11:01:54;10.30;;;7.10;;
49237;SDS011;35069;47.906;1.892;2022-11-12T11:04:28;10.30;;;7.13;;
49237;SDS011;35069;47.906;1.892;2022-11-12T11:06:57;9.32;;;6.18;;
49237;SDS011;35069;47.906;1.892;2022-11-12T11:11:54;9.32;;;7.57;;
49237;SDS011;35069;47.906;1.892;2022-11-12T11:14:25;11.20;;;7.07;;
49237;SDS011;35069;47.906;1.892;2022-11-12T11:16:51;9.93;;;7.25;;
49237;SDS011;35069;47.906;1.892;2022-11-12T11:19:22;13.35;;;7.75;;
49237;SDS011;35069;47.906;1.892;2022-11-12T11:22:00;10.10;;;7.05;;
49237;SDS011;35069;47.906;1.892;2022-11-12T11:25:01;9.70;;;7.05;;
49237;SDS011;35069;47.906;1.892;2022-11-12T11:27:37;10.45;;;7.07;;
49237;SDS011;35069;47.906;1.892;2022-11-12T11:30:12;10.07;;;6.68;;
49237;SDS011;35069;47.906;1.892;2022-11-12T11:38:26;11.68;;;6.10;;
49237;SDS011;35069;47.906;1.892;2022-11-12T11:44:03;9.70;;;6.45;;
49237;SDS011;35069;47.906;1.892;2022-11-12T11:46:33;8.45;;;6.57;;
49237;SDS011;35069;47.906;1.892;2022-11-12T11:49:24;10.52;;;5.78;;
49237;SDS011;35069;47.906;1.892;2022-11-12T11:57:20;9.75;;;5.70;;
49237;SDS011;35069;47.906;1.892;2022-11-12T12:11:37;7.10;;;5.93;;
49237;SDS011;35069;47.906;1.892;2022-11-12T12:17:45;6.80;;;4.80;;
49237;SDS011;35069;47.906;1.892;2022-11-12T12:25:51;7.25;;;4.47;;
49237;SDS011;35069;47.906;1.892;2022-11-12T12:30:57;4.18;;;3.45;;
49237;SDS011;35069;47.906;1.892;2022-11-12T12:36:10;6.43;;;5.00;;
49237;SDS011;35069;47.906;1.892;2022-11-12T12:41:17;8.02;;;5.10;;
49237;SDS011;35069;47.906;1.892;2022-11-12T12:44:01;10.25;;;4.68;;
49237;SDS011;35069;47.906;1.892;2022-11-12T12:46:29;5.22;;;4.72;;
49237;SDS011;35069;47.906;1.892;2022-11-12T12:49:00;7.22;;;4.97;;
49237;SDS011;35069;47.906;1.892;2022-11-12T12:51:28;6.18;;;4.72;;
49237;SDS011;35069;47.906;1.892;2022-11-12T12:53:56;9.02;;;4.63;;
49237;SDS011;35069;47.906;1.892;2022-11-12T12:58:51;12.27;;;5.75;;
49237;SDS011;35069;47.906;1.892;2022-11-12T13:16:59;8.57;;;5.60;;
49237;SDS011;35069;47.906;1.892;2022-11-12T13:42:57;3.78;;;3.47;;
49237;SDS011;35069;47.906;1.892;2022-11-12T13:45:27;8.63;;;3.85;;
49237;SDS011;35069;47.906;1.892;2022-11-12T13:47:53;8.00;;;2.97;;
49237;SDS011;35069;47.906;1.892;2022-11-12T13:50:19;8.65;;;3.55;;
49237;SDS011;35069;47.906;1.892;2022-11-12T13:52:47;6.15;;;3.67;;
49237;SDS011;35069;47.906;1.892;2022-11-12T13:57:50;3.78;;;3.25;;
49237;SDS011;35069;47.906;1.892;2022-11-12T14:02:57;6.10;;;3.72;;
49237;SDS011;35069;47.906;1.892;2022-11-12T14:05:26;3.92;;;3.58;;
49237;SDS011;35069;47.906;1.892;2022-11-12T14:18:44;6.22;;;2.80;;
49237;SDS011;35069;47.906;1.892;2022-11-12T14:21:29;7.55;;;4.25;;
49237;SDS011;35069;47.906;1.892;2022-11-12T14:23:55;7.57;;;4.07;;
49237;SDS011;35069;47.906;1.892;2022-11-12T14:26:37;8.32;;;3.50;;
49237;SDS011;35069;47.906;1.892;2022-11-12T14:29:04;8.43;;;4.00;;
49237;SDS011;35069;47.906;1.892;2022-11-12T14:31:30;11.15;;;5.15;;
49237;SDS011;35069;47.906;1.892;2022-11-12T14:33:55;6.75;;;3.60;;
49237;SDS011;35069;47.906;1.892;2022-11-12T14:36:21;5.38;;;2.92;;
49237;SDS011;35069;47.906;1.892;2022-11-12T14:38:52;6.57;;;5.03;;
49237;SDS011;35069;47.906;1.892;2022-11-12T14:41:21;5.05;;;4.18;;
49237;SDS011;35069;47.906;1.892;2022-11-12T14:43:54;5.05;;;3.95;;
49237;SDS011;35069;47.906;1.892;2022-11-12T14:46:25;4.53;;;3.95;;
49237;SDS011;35069;47.906;1.892;2022-11-12T14:52:28;5.80;;;4.38;;
49237;SDS011;35069;47.906;1.892;2022-11-12T14:54:46;8.95;;;4.82;;
49237;SDS011;35069;47.906;1.892;2022-11-12T14:57:25;9.05;;;5.10;;
49237;SDS011;35069;47.906;1.892;2022-11-12T14:59:53;6.68;;;4.82;;
49237;SDS011;35069;47.906;1.892;2022-11-12T15:02:28;6.95;;;5.15;;
49237;SDS011;35069;47.906;1.892;2022-11-12T15:07:28;9.27;;;4.60;;
49237;SDS011;35069;47.906;1.892;2022-11-12T15:09:56;6.20;;;3.83;;
49237;SDS011;35069;47.906;1.892;2022-11-12T15:12:29;6.57;;;3.38;;
49237;SDS011;35069;47.906;1.892;2022-11-12T15:15:07;7.03;;;4.07;;
49237;SDS011;35069;47.906;1.892;2022-11-12T15:17:40;7.72;;;4.93;;
49237;SDS011;35069;47.906;1.892;2022-11-12T15:20:13;6.07;;;4.80;;
49237;SDS011;35069;47.906;1.892;2022-11-12T15:22:47;7.38;;;4.68;;
49237;SDS011;35069;47.906;1.892;2022-11-12T15:27:50;6.28;;;4.15;;
49237;SDS011;35069;47.906;1.892;2022-11-12T15:33:05;11.13;;;4.55;;
49237;SDS011;35069;47.906;1.892;2022-11-12T15:35:38;8.48;;;4.20;;
49237;SDS011;35069;47.906;1.892;2022-11-12T15:38:16;5.97;;;4.57;;
49237;SDS011;35069;47.906;1.892;2022-11-12T15:40:47;9.40;;;4.53;;
49237;SDS011;35069;47.906;1.892;2022-11-12T15:43:22;6.63;;;4.55;;
49237;SDS011;35069;47.906;1.892;2022-11-12T15:45:50;6.90;;;4.28;;
49237;SDS011;35069;47.906;1.892;2022-11-12T15:48:16;8.65;;;4.88;;
49237;SDS011;35069;47.906;1.892;2022-11-12T15:50:42;7.82;;;5.60;;
49237;SDS011;35069;47.906;1.892;2022-11-12T15:53:09;4.90;;;4.35;;
49237;SDS011;35069;47.906;1.892;2022-11-12T15:55:35;7.00;;;4.60;;
49237;SDS011;35069;47.906;1.892;2022-11-12T15:58:03;5.70;;;4.70;;
49237;SDS011;35069;47.906;1.892;2022-11-12T16:00:31;6.13;;;4.78;;
49237;SDS011;35069;47.906;1.892;2022-11-12T16:05:42;8.48;;;4.82;;
49237;SDS011;35069;47.906;1.892;2022-11-12T16:08:08;8.00;;;5.15;;
49237;SDS011;35069;47.906;1.892;2022-11-12T16:10:34;8.07;;;5.07;;
49237;SDS011;35069;47.906;1.892;2022-11-12T16:13:01;6.30;;;4.65;;
49237;SDS011;35069;47.906;1.892;2022-11-12T16:15:28;5.75;;;5.22;;
49237;SDS011;35069;47.906;1.892;2022-11-12T16:17:54;9.98;;;5.60;;
49237;SDS011;35069;47.906;1.892;2022-11-12T16:20:25;8.07;;;5.38;;
49237;SDS011;35069;47.906;1.892;2022-11-12T16:22:58;9.70;;;5.00;;
49237;SDS011;35069;47.906;1.892;2022-11-12T16:25:26;7.50;;;6.03;;
49237;SDS011;35069;47.906;1.892;2022-11-12T16:27:54;7.82;;;6.00;;
49237;SDS011;35069;47.906;1.892;2022-11-12T16:30:23;7.97;;;6.50;;
49237;SDS011;35069;47.906;1.892;2022-11-12T16:32:51;10.43;;;6.43;;
49237;SDS011;35069;47.906;1.892;2022-11-12T16:35:20;7.05;;;6.40;;
49237;SDS011;35069;47.906;1.892;2022-11-12T16:37:45;9.32;;;6.75;;
49237;SDS011;35069;47.906;1.892;2022-11-12T16:40:12;8.27;;;6.57;;
49237;SDS011;35069;47.906;1.892;2022-11-12T16:42:48;8.27;;;6.55;;
49237;SDS011;35069;47.906;1.892;2022-11-12T16:45:15;6.55;;;5.80;;
49237;SDS011;35069;47.906;1.892;2022-11-12T16:47:47;8.05;;;6.65;;
49237;SDS011;35069;47.906;1.892;2022-11-12T16:50:15;9.57;;;6.68;;
49237;SDS011;35069;47.906;1.892;2022-11-12T16:52:45;8.88;;;7.38;;
49237;SDS011;35069;47.906;1.892;2022-11-12T16:55:11;11.63;;;7.38;;
49237;SDS011;35069;47.906;1.892;2022-11-12T16:57:36;12.70;;;7.43;;
49237;SDS011;35069;47.906;1.892;2022-11-12T17:00:03;10.90;;;7.60;;
49237;SDS011;35069;47.906;1.892;2022-11-12T17:02:30;8.90;;;7.75;;
49237;SDS011;35069;47.906;1.892;2022-11-12T17:04:56;11.50;;;8.05;;
49237;SDS011;35069;47.906;1.892;2022-11-12T17:07:21;11.75;;;8.88;;